Helotes, TX (78023)

6:06 AM CST on March 06, 2015 (GMT -0600)
Helotes Park Terrace | Change Station
CLOSE
Current Station
Personal Weather Station
Location: Helotes, TX
Elevation: 1060 ft
Nearby Weather Stations

Elev 1060 ft 29.57 °N, 98.68 °W | Updated 4 seconds ago

Clear
Clear
30.6 °F
Feels Like 28 °F
N
3.1
Wind Variable Wind from NE
Gusts 6.3 mph

Today
High -- | Low -- °F
--% Chance of Precip.
Yesterday
High -- | Low -- °F
Precip. -- in
6:55 AM 6:37 PM
Full, 100% visible
Pressure 30.54 in
Visibility 10.0 miles
Clouds Clear
Windchill 28 °F
Dew Point 20 °F
Humidity 65%
Rainfall in
Snow Depth Not available.
UV 0 out of 12
Pollen 5.40 out of 12
Air Quality Not available.
Flu Activity Not available.
METAR K5C1 061155Z AUTO 35004KT 10SM CLR M02/M07 A3054 RMK AO1

More Conditions Fewer Conditions

Pressure 30.54 in
Visibility 10.0 miles
Clouds Clear
Windchill 28 °F
Dew Point 20 °F
Humidity 65%
Rainfall in
Snow Depth Not available.
UV 0 out of 12
Pollen 5.40 out of 12
Air Quality Not available.
Flu Activity Not available.
METAR K5C1 061155Z AUTO 35004KT 10SM CLR M02/M07 A3054 RMK AO1

More Conditions Fewer Conditions

10-Day Weather Forecast

Almanac

Astronomy

Mar. 06, 2015 Rise Set
Actual Time
Civil Twilight
Nautical Twilight
Astronomical Twilight
Moon
Length of Visible Light
Length of Day
Tomorrow will be .
, % of the Moon is Illuminated

Today's Extremes

State Highs State Lows

Community

WunderPhotos

Upload Photos

1,803,237 photos uploaded!

WunderBlogs® & News

Nearby

Air Quality

  Air Quality AQ Index Pollutant
Not available.

Snow Depth

Station Depth Elevation

Earthquake Activity

City Distance Mag. Time & Date
Minimum magnitude displayed is 2.5.

Coastal Water Temperatures

Place Temperature

Nearby Weather Stations